map of FMM home
FMM - Airport
Location
City:  Memmingen, Bavaria, Germany
Near (Alt.):Allgäu
Name:Allgäu
ICAO:EDJA
IATA:FMM

Details
Type:Airport (Flugplatz, Airfield)
Latitude:47°59'20"N (47.988758)
Longitude:10°14'22"E (10.239500)
Datum:other
Elevation:2077 ft (633 m)
Variation:3.06°E (WMM2015v2 magnetic declination)
0.16° annual change
Runways:1
Longest:9780 × 98 ft (2981 × 30 m), paved

Time
Time Zone:UTC+1 (DST+2)
Local Time:

Weather
METAR:EDJA 041350Z 08006KT 9999 FEW011 M01/M03 Q1026

Related Locations
Nearby:
Farthest:CHT: 12003 mi / 19316 km
Waitangi [Tuuta], CIT, NZ

Find:

   beyond  
but within

Other Information
Maps:
NOTAMs:
Links:
Sources:

  
  • flag of Germany
  • flag of Bavaria
  

Sectional Chart

Flight Planning
at skyvector.com

Satellite Image

Google Maps Satellite view

 

Copyright © 2004-2019 Karl L. Swartz. All rights reserved.
The Great Circle Mapper name and logo are trademarks of the Great Circle Mapper.
All other trademarks mentioned herein belong to their respective owners.
Please see credits for attibutions and further copyright information.

  Follow gcmap on Facebook Follow gcmap on Twitter GCmap on LinkedIn

hCard Microformat

Geo Microformat